Main page
METAR-TAF:

METAR-TAF

Airports :

Jinnah International Airport

Karachi, Pakistan

latitude: 24-54N, longitude: 067-08E, elevation: 21 m

Current weather observation

The report was made 28 minutes ago, at 04:55 UTC
Wind 5 kt from the West/Southwest
Temperature 29°C
Humidity 58%
Pressure 1009 hPa
Visibility: 6000 m

METAR: OPKC 200455Z 24005KT 6000 NSC 29/20 Q1009 NOSIG

Time: 10:23 (05:23 UTC)

Forecast

The report was made 4 hours and 53 minutes ago, at 00:30 UTC
Forecast valid from 20 at 03 UTC to 20 at 12 UTC
Wind 10 kt from the Southwest with gusts up to 20 kt
Visibility: 7000 m

TAF: OPKC 200030Z 2003/2012 23010G20KT 7000 NSC

Weather observations and forecasts of more than 4000 airports (METAR and TAF reports).

The available stations are represented by yellow and red dots on the map.

Hover mouse over dot to see the name of the station.

Then click to see weather observations and forecasts.

To change the map : click on the green buttons with a black cross to zoom in, on the green button with a dash to zoom out, or on the green arrows for adjacent maps.


METAR-TAF: